Hewitt, New Jersey
Current Conditions -  °F | °C
As of 12:15 AM on Monday 22 Dec 2014 (Local Time) from KFWN Reporting Station
Overcast Overcast  
Wind Chill: 24°   Ceiling: 2800
Heat Index: 31°   Visibility: 9mi
Dew Point: 26°   Wind: 7mph
Humidity: 82%   Direction: 40°NE
Pressure: 30.32"   Gusts: NA
Location:  41.14°N, 74.31°W
Report Text: KFWN 220515Z AUTO 04006KT 9SM OVC028 M01/M03 A3032 RMK AO2 T10061033
Loading
Personal Weather Stations






























Interactive Weather Map New forecast layout! Learn more

10-Day Weather Forecast

Advertisements
Track Severe Weather on mobile